Time;durP1;ratioP1;P1;durP2;ratioP2;P2;SDS_P1;SDS_P2;PMS_P1;PMS_P2;Temp;Humidity;BMP_temperature;BMP_pressure;BME280_temperature;BME280_humidity;BME280_pressure;Samples;Min_cycle;Max_cycle;Signal;HPM_P1;HPM_P2
2021/12/29 00:00:14;;;;;;;;;6.00;2.50;;;;;12.67;65.11;100494.34;5067031;28;45465;-56
2021/12/29 00:02:40;;;;;;;;;9.50;4.00;;;;;12.68;65.10;100511.03;5078005;28;46259;-56
2021/12/29 00:05:07;;;;;;;;;4.50;2.25;;;;;12.66;65.16;100505.88;5082886;28;45361;-55
2021/12/29 00:07:32;;;;;;;;;12.50;5.00;;;;;12.69;65.26;100504.78;5083056;28;45172;-56
2021/12/29 00:10:00;;;;;;;;;10.50;2.00;;;;;12.72;65.27;100518.66;5083065;28;45394;-56
2021/12/29 00:12:27;;;;;;;;;12.25;2.50;;;;;12.74;65.35;100523.81;5082197;28;46183;-57
2021/12/29 00:14:54;;;;;;;;;3.00;3.00;;;;;12.74;65.23;100521.19;5081993;28;45322;-55
2021/12/29 00:17:19;;;;;;;;;3.75;3.25;;;;;12.74;65.07;100531.75;5082588;28;45172;-55
2021/12/29 00:19:45;;;;;;;;;8.00;4.00;;;;;12.75;65.15;100538.72;5082848;28;45152;-54
2021/12/29 00:22:10;;;;;;;;;11.50;2.75;;;;;12.74;65.04;100531.75;5082488;28;46094;-55
2021/12/29 00:24:36;;;;;;;;;5.50;1.25;;;;;12.73;64.96;100546.75;5082583;28;45413;-55
2021/12/29 00:27:04;;;;;;;;;5.50;2.00;;;;;12.71;65.26;100551.28;5082527;28;45229;-54
2021/12/29 00:29:29;;;;;;;;;9.50;4.00;;;;;12.74;65.02;100560.81;5082321;28;45552;-55
2021/12/29 00:31:55;;;;;;;;;12.00;6.25;;;;;12.75;65.21;100570.44;5082057;28;45352;-56
2021/12/29 00:34:20;;;;;;;;;8.25;4.00;;;;;12.74;65.06;100581.97;5082614;28;45334;-56
2021/12/29 00:36:46;;;;;;;;;5.00;3.00;;;;;12.74;65.16;100576.69;5082523;28;45245;-55
2021/12/29 00:39:11;;;;;;;;;8.00;3.75;;;;;12.73;64.93;100588.22;5082586;28;45313;-55
2021/12/29 00:41:37;;;;;;;;;9.25;3.75;;;;;12.71;64.94;100584.81;5082254;28;46054;-55
2021/12/29 00:44:03;;;;;;;;;11.25;2.75;;;;;12.68;65.03;100593.81;5082064;28;45349;-56
2021/12/29 00:46:28;;;;;;;;;4.50;0.75;;;;;12.67;65.13;100596.56;5082281;28;45314;-56
2021/12/29 00:48:54;;;;;;;;;8.50;4.00;;;;;12.65;65.25;100599.31;5080184;28;45239;-56
2021/12/29 00:51:20;;;;;;;;;6.75;3.00;;;;;12.63;65.43;100595.06;5061718;28;45263;-56
2021/12/29 00:53:45;;;;;;;;;3.25;1.00;;;;;12.63;65.29;100585.34;5061700;28;45239;-56
2021/12/29 00:56:11;;;;;;;;;10.00;2.00;;;;;12.62;65.53;100596.03;5069921;28;45285;-56
2021/12/29 00:58:36;;;;;;;;;8.50;3.00;;;;;12.61;65.77;100597.00;5062038;28;45414;-56
2021/12/29 01:01:04;;;;;;;;;7.25;4.00;;;;;12.61;65.81;100595.19;5066826;28;45769;-55
2021/12/29 01:03:29;;;;;;;;;3.25;2.00;;;;;12.60;65.83;100592.66;5082046;27;45340;-55
2021/12/29 01:05:55;;;;;;;;;11.25;3.75;;;;;12.60;65.98;100590.00;5081928;28;45476;-55
2021/12/29 01:08:20;;;;;;;;;13.00;5.75;;;;;12.60;66.07;100585.56;5082328;28;45299;-55
2021/12/29 01:10:46;;;;;;;;;11.75;2.50;;;;;12.59;65.97;100586.53;5081634;28;45456;-55
2021/12/29 01:13:18;;;;;;;;;4.50;2.75;;;;;12.55;66.13;100596.44;5081886;28;45386;-56
2021/12/29 01:18:28;;;;;;;;;3.50;2.25;;;;;12.54;66.34;100594.75;5081861;28;45237;-56
2021/12/29 01:20:54;;;;;;;;;7.75;2.00;;;;;12.52;66.35;100594.03;5081392;28;45481;-56
2021/12/29 01:23:21;;;;;;;;;6.00;5.00;;;;;12.51;66.58;100605.56;5081722;28;45355;-56
2021/12/29 01:25:46;;;;;;;;;8.25;3.00;;;;;12.50;66.62;100603.03;5080451;28;45571;-55
2021/12/29 01:28:12;;;;;;;;;9.50;4.00;;;;;12.48;66.55;100612.84;5081790;28;45439;-56
2021/12/29 01:30:37;;;;;;;;;8.00;3.00;;;;;12.46;66.85;100609.47;5081368;28;45386;-55
2021/12/29 01:33:06;;;;;;;;;4.75;2.00;;;;;12.47;66.73;100605.88;5081592;28;45370;-55
2021/12/29 01:35:38;;;;;;;;;8.50;3.75;;;;;12.46;67.09;100597.09;5081494;28;45305;-56
2021/12/29 01:38:05;;;;;;;;;8.00;2.00;;;;;12.47;67.13;100593.50;5081723;28;45342;-55
2021/12/29 01:40:31;;;;;;;;;8.00;5.00;;;;;12.47;67.08;100596.13;5081125;28;46158;-54
2021/12/29 01:42:58;;;;;;;;;10.25;3.25;;;;;12.48;67.15;100597.84;5081326;28;45310;-55
2021/12/29 01:45:24;;;;;;;;;9.25;4.00;;;;;12.49;67.29;100596.06;5081079;28;45293;-55
2021/12/29 01:47:50;;;;;;;;;12.00;3.25;;;;;12.49;67.26;100601.34;5081245;28;45455;-56
2021/12/29 01:50:17;;;;;;;;;5.50;3.75;;;;;12.51;67.28;100602.91;5067771;28;45276;-55
2021/12/29 01:52:50;;;;;;;;;6.75;4.25;;;;;12.54;67.45;100609.78;5060988;28;45524;-55
2021/12/29 01:55:17;;;;;;;;;11.00;5.00;;;;;12.53;67.42;100608.94;5067700;28;45365;-53
2021/12/29 01:57:43;;;;;;;;;10.25;5.50;;;;;12.55;67.45;100609.66;5067407;28;45265;-55
2021/12/29 02:00:14;;;;;;;;;12.00;5.25;;;;;12.56;67.46;100614.03;5066258;28;45364;-55
2021/12/29 02:02:39;;;;;;;;;6.75;4.00;;;;;12.54;67.27;100607.97;5076148;28;45523;-55
2021/12/29 02:05:05;;;;;;;;;8.75;4.00;;;;;12.53;67.59;100623.94;5081166;28;45270;-55
2021/12/29 02:07:31;;;;;;;;;4.00;4.00;;;;;12.55;67.73;100627.31;5081330;28;45390;-55
2021/12/29 02:09:57;;;;;;;;;10.25;4.50;;;;;12.56;67.55;100632.53;5081048;28;45294;-55
2021/12/29 02:12:23;;;;;;;;;10.50;3.50;;;;;12.58;67.60;100621.84;5080762;28;45312;-56
2021/12/29 02:14:49;;;;;;;;;8.50;4.00;;;;;12.61;67.71;100612.84;5081301;28;45358;-55
2021/12/29 02:17:14;;;;;;;;;11.25;3.75;;;;;12.64;67.70;100624.06;5080961;28;45741;-54
2021/12/29 02:19:46;;;;;;;;;9.50;3.50;;;;;12.65;67.53;100624.91;5080925;28;45283;-56
2021/12/29 02:22:32;;;;;;;;;13.00;3.25;;;;;12.65;67.45;100624.91;5080800;28;45373;-55
2021/12/29 02:25:58;;;;;;;;;11.00;5.00;;;;;12.63;67.59;100626.78;5080870;28;45340;-56
2021/12/29 02:27:54;;;;;;;;;9.75;4.00;;;;;12.61;67.75;100624.25;5067283;28;45289;-56
2021/12/29 02:30:23;;;;;;;;;9.00;6.25;;;;;12.61;67.78;100621.63;5080244;28;46230;-55
2021/12/29 02:32:49;;;;;;;;;9.75;4.25;;;;;12.63;67.92;100624.97;5080751;28;45238;-56
2021/12/29 02:35:17;;;;;;;;;3.75;3.75;;;;;12.64;68.19;100632.00;5080614;28;45287;-56
2021/12/29 02:37:43;;;;;;;;;6.50;2.50;;;;;12.65;68.06;100632.84;5083737;28;45415;-56
2021/12/29 02:40:10;;;;;;;;;8.00;3.75;;;;;12.61;68.17;100631.34;5084290;27;45314;-55
2021/12/29 02:42:40;;;;;;;;;6.75;4.00;;;;;12.62;68.15;100617.16;5084327;28;45273;-54
2021/12/29 02:45:08;;;;;;;;;11.25;3.00;;;;;12.61;68.27;100621.63;5083877;28;45223;-56
2021/12/29 02:47:34;;;;;;;;;4.50;3.75;;;;;12.62;68.26;100612.72;5084301;28;45482;-55
2021/12/29 02:50:00;;;;;;;;;6.50;3.25;;;;;12.64;68.47;100613.50;5072904;28;45247;-56
2021/12/29 02:52:25;;;;;;;;;8.25;3.25;;;;;12.66;68.42;100608.94;5063849;28;45291;-56
2021/12/29 02:54:52;;;;;;;;;6.00;4.00;;;;;12.67;68.27;100612.41;5063725;28;45306;-56
2021/12/29 02:57:18;;;;;;;;;4.50;3.00;;;;;12.68;68.36;100616.75;5072801;27;45527;-56
2021/12/29 02:59:43;;;;;;;;;8.00;3.00;;;;;12.69;68.34;100613.16;5067323;28;46165;-54
2021/12/29 03:02:09;;;;;;;;;7.00;3.50;;;;;12.69;68.17;100615.78;5074973;28;45217;-56
2021/12/29 03:04:34;;;;;;;;;2.25;2.25;;;;;12.70;68.34;100622.75;5083995;27;45349;-56
2021/12/29 03:07:00;;;;;;;;;9.00;3.00;;;;;12.69;68.40;100624.56;5084203;28;45382;-56
2021/12/29 03:09:26;;;;;;;;;6.00;4.00;;;;;12.70;68.37;100626.25;5083752;28;45389;-56
2021/12/29 03:11:51;;;;;;;;;11.75;3.50;;;;;12.67;68.27;100617.72;5084087;28;45243;-57
2021/12/29 03:14:17;;;;;;;;;6.00;3.00;;;;;12.68;68.48;100617.59;5083566;28;45252;-56
2021/12/29 03:16:43;;;;;;;;;8.00;2.50;;;;;12.69;68.39;100615.78;5083800;28;45398;-56
2021/12/29 03:19:09;;;;;;;;;6.50;3.00;;;;;12.71;68.44;100624.44;5083453;28;45988;-57
2021/12/29 03:21:35;;;;;;;;;5.50;5.25;;;;;12.72;68.37;100615.59;5083782;28;45171;-56
2021/12/29 03:24:03;;;;;;;;;10.50;3.25;;;;;12.74;68.41;100616.31;5083743;28;45321;-56
2021/12/29 03:26:28;;;;;;;;;7.50;3.50;;;;;12.75;68.40;100618.84;5083851;28;45368;-56
2021/12/29 03:28:57;;;;;;;;;6.00;2.75;;;;;12.77;68.51;100609.00;5082895;28;46177;-54
2021/12/29 03:31:22;;;;;;;;;5.75;4.00;;;;;12.78;68.27;100618.63;5083607;28;45386;-56
2021/12/29 03:33:49;;;;;;;;;5.00;3.75;;;;;12.79;68.59;100622.97;5083275;28;45490;-55
2021/12/29 03:36:16;;;;;;;;;8.00;4.00;;;;;12.81;68.67;100629.00;5083728;28;45545;-56
2021/12/29 03:38:42;;;;;;;;;8.50;4.00;;;;;12.82;68.93;100627.22;5083290;28;45261;-56
2021/12/29 03:41:11;;;;;;;;;4.75;2.75;;;;;12.81;68.58;100617.59;5083575;28;45248;-56
2021/12/29 03:43:38;;;;;;;;;5.00;2.00;;;;;12.80;68.60;100615.91;5083110;28;45267;-57
2021/12/29 03:46:06;;;;;;;;;3.75;2.50;;;;;12.79;68.74;100619.47;5083358;28;45330;-56
2021/12/29 03:48:34;;;;;;;;;5.00;2.00;;;;;12.79;68.91;100614.19;5081995;28;45233;-56
2021/12/29 03:51:01;;;;;;;;;5.75;3.75;;;;;12.80;69.09;100622.03;5063309;28;45394;-56
2021/12/29 03:53:27;;;;;;;;;4.50;3.00;;;;;12.81;69.08;100620.22;5063105;28;45343;-56
2021/12/29 03:55:53;;;;;;;;;3.50;2.50;;;;;12.79;68.87;100604.47;5071096;28;45596;-56
2021/12/29 03:58:21;;;;;;;;;5.00;2.00;;;;;12.78;68.67;100607.22;5062898;28;45379;-55
2021/12/29 04:00:49;;;;;;;;;4.75;2.00;;;;;12.77;68.99;100602.88;5066034;28;45239;-56
2021/12/29 04:03:14;;;;;;;;;4.50;2.00;;;;;12.77;68.95;100594.94;5062786;28;45236;-56
2021/12/29 04:05:40;;;;;;;;;8.75;3.75;;;;;12.77;69.17;100601.09;5062660;28;45314;-55
2021/12/29 04:08:06;;;;;;;;;7.00;2.25;;;;;12.78;69.20;100596.63;5062759;28;46182;-56
2021/12/29 04:10:32;;;;;;;;;4.00;2.75;;;;;12.76;69.12;100604.69;5062453;28;45352;-56
2021/12/29 04:12:59;;;;;;;;;5.25;3.00;;;;;12.74;69.14;100601.31;5062871;28;45433;-56
2021/12/29 04:15:25;;;;;;;;;3.50;3.00;;;;;12.72;69.10;100605.03;5062351;28;45501;-56
2021/12/29 04:17:57;;;;;;;;;3.75;3.00;;;;;12.70;68.90;100604.25;5062338;28;45981;-56
2021/12/29 04:23:12;;;;;;;;;4.00;3.25;;;;;12.72;69.45;100610.31;5061928;28;45390;-55
2021/12/29 04:25:39;;;;;;;;;4.25;3.00;;;;;12.73;69.60;100606.72;5062217;28;45173;-55
2021/12/29 04:28:13;;;;;;;;;2.75;1.25;;;;;12.73;69.58;100598.78;5062194;28;46188;-57
2021/12/29 04:30:38;;;;;;;;;7.00;2.50;;;;;12.72;69.86;100608.50;5061955;28;45169;-56
2021/12/29 04:33:04;;;;;;;;;6.50;3.75;;;;;12.72;69.81;100600.59;5062139;28;45243;-56
2021/12/29 04:35:30;;;;;;;;;3.50;1.75;;;;;12.69;69.69;100597.28;5062291;28;45333;-56
2021/12/29 04:37:55;;;;;;;;;2.25;2.00;;;;;12.69;69.97;100599.94;5062172;28;46048;-55
2021/12/29 04:40:21;;;;;;;;;4.25;1.25;;;;;12.69;69.94;100597.28;5062029;28;45253;-55
2021/12/29 04:42:47;;;;;;;;;6.00;3.00;;;;;12.62;70.04;100596.03;5062261;28;45476;-55
2021/12/29 04:45:14;;;;;;;;;5.50;3.00;;;;;12.57;70.32;100594.56;5061758;28;45465;-56
2021/12/29 04:47:42;;;;;;;;;2.50;2.00;;;;;12.54;70.51;100591.28;5062103;28;45484;-56
2021/12/29 04:50:19;;;;;;;;;3.00;2.00;;;;;12.50;70.58;100592.47;5061672;28;45236;-57
2021/12/29 04:52:46;;;;;;;;;7.50;2.00;;;;;12.46;70.85;100597.09;5076563;28;45476;-56
2021/12/29 04:55:11;;;;;;;;;2.50;2.50;;;;;12.43;71.16;100586.75;5082105;28;45330;-56
2021/12/29 04:57:37;;;;;;;;;5.75;2.00;;;;;12.43;71.22;100583.28;5067421;27;45483;-56
2021/12/29 05:00:05;;;;;;;;;2.00;0.25;;;;;12.41;71.43;100577.25;5065386;28;45328;-56
2021/12/29 05:02:30;;;;;;;;;5.50;1.00;;;;;12.39;71.67;100579.97;5076000;28;45287;-57
2021/12/29 05:05:00;;;;;;;;;1.00;1.00;;;;;12.39;71.76;100581.78;5082269;28;45307;-56
2021/12/29 05:10:10;;;;;;;;;1.50;1.00;;;;;12.37;71.93;100573.97;5082113;28;45417;-56
2021/12/29 05:12:35;;;;;;;;;1.25;1.00;;;;;12.34;72.16;100573.34;5081834;28;45397;-56
2021/12/29 05:15:01;;;;;;;;;2.00;1.00;;;;;12.32;72.12;100568.16;5081971;28;45393;-56
2021/12/29 05:17:26;;;;;;;;;1.75;1.75;;;;;12.35;72.35;100564.47;5081613;28;45752;-56
2021/12/29 05:19:52;;;;;;;;;5.25;1.00;;;;;12.36;72.29;100566.16;5081852;28;45330;-55
2021/12/29 05:22:17;;;;;;;;;1.25;1.00;;;;;12.34;72.80;100560.13;5081907;28;45308;-54
2021/12/29 05:24:43;;;;;;;;;1.50;0.50;;;;;12.31;72.70;100563.81;5082087;28;45338;-55
2021/12/29 05:27:08;;;;;;;;;2.00;1.00;;;;;12.29;72.50;100569.22;5081528;28;45820;-55
2021/12/29 05:29:34;;;;;;;;;1.75;1.25;;;;;12.28;72.77;100561.41;5081361;28;45389;-56
2021/12/29 05:32:00;;;;;;;;;2.00;1.00;;;;;12.29;72.81;100553.38;5081596;28;45411;-56
2021/12/29 05:34:25;;;;;;;;;3.75;0.00;;;;;12.33;72.71;100554.00;5081779;28;45396;-56
2021/12/29 05:36:51;;;;;;;;;1.75;1.00;;;;;12.36;72.93;100550.31;5081486;28;45975;-57
2021/12/29 05:39:17;;;;;;;;;3.75;1.50;;;;;12.39;73.05;100553.56;5081718;28;45227;-56
2021/12/29 05:41:42;;;;;;;;;0.00;0.00;;;;;12.40;73.23;100551.75;5081659;28;45236;-56
2021/12/29 05:44:08;;;;;;;;;1.00;0.00;;;;;12.39;73.56;100552.72;5081679;28;45328;-56
2021/12/29 05:46:34;;;;;;;;;2.75;1.00;;;;;12.37;73.87;100547.53;5081361;28;45241;-57
2021/12/29 05:48:59;;;;;;;;;2.50;1.25;;;;;12.36;73.91;100540.59;5078665;28;45305;-56
2021/12/29 05:51:25;;;;;;;;;2.75;0.00;;;;;12.37;74.14;100552.84;5061163;28;45480;-57
2021/12/29 05:53:50;;;;;;;;;4.00;1.00;;;;;12.37;74.34;100544.91;5061314;28;45481;-57
2021/12/29 05:56:16;;;;;;;;;1.75;1.75;;;;;12.36;74.62;100543.22;5069432;28;45409;-57
2021/12/29 05:58:42;;;;;;;;;1.50;1.00;;;;;12.36;74.54;100542.38;5061471;28;45424;-57
2021/12/29 06:01:09;;;;;;;;;3.25;1.75;;;;;12.38;74.69;100540.47;5066708;28;45220;-55
2021/12/29 06:03:36;;;;;;;;;3.00;3.00;;;;;12.38;74.61;100545.75;5081349;27;45866;-56
2021/12/29 06:06:02;;;;;;;;;3.00;2.00;;;;;12.36;75.06;100545.88;5080824;28;45529;-56
2021/12/29 06:08:27;;;;;;;;;4.75;2.50;;;;;12.36;75.15;100537.94;5081089;28;45412;-56
2021/12/29 06:10:53;;;;;;;;;5.50;3.00;;;;;12.37;75.04;100542.25;5081332;28;45211;-55
2021/12/29 06:13:19;;;;;;;;;2.75;2.75;;;;;12.38;75.16;100535.19;5084957;28;45208;-55
2021/12/29 06:15:44;;;;;;;;;4.25;3.00;;;;;12.37;75.24;100530.84;5084303;28;45303;-56
2021/12/29 06:18:10;;;;;;;;;3.50;2.25;;;;;12.38;75.17;100532.53;5084625;28;45433;-56
2021/12/29 06:20:38;;;;;;;;;3.50;3.00;;;;;12.38;75.25;100541.31;5084694;28;45306;-56
2021/12/29 06:23:07;;;;;;;;;3.75;2.25;;;;;12.39;75.32;100545.63;5084882;28;45549;-55
2021/12/29 06:25:34;;;;;;;;;5.25;4.25;;;;;12.39;75.37;100543.00;5084316;28;46369;-55
2021/12/29 06:27:59;;;;;;;;;3.50;3.00;;;;;12.39;75.61;100544.78;5084684;28;45298;-55
2021/12/29 06:30:25;;;;;;;;;5.00;5.00;;;;;12.40;75.57;100538.56;5082772;28;45363;-55
2021/12/29 06:32:50;;;;;;;;;2.50;2.00;;;;;12.40;75.61;100549.13;5084536;28;45259;-55
2021/12/29 06:35:16;;;;;;;;;5.25;3.75;;;;;12.40;75.67;100546.47;5084259;28;45977;-55
2021/12/29 06:37:45;;;;;;;;;5.00;3.00;;;;;12.41;75.51;100541.13;5084508;28;45347;-56
2021/12/29 06:40:13;;;;;;;;;6.25;6.00;;;;;12.41;75.45;100543.75;5084508;28;45218;-55
2021/12/29 06:42:38;;;;;;;;;5.00;5.00;;;;;12.42;75.82;100539.31;5084535;28;45161;-56
2021/12/29 06:45:04;;;;;;;;;5.00;5.00;;;;;12.41;75.67;100540.28;5083882;28;46166;-56
2021/12/29 06:47:30;;;;;;;;;5.75;4.25;;;;;12.41;75.81;100540.28;5071943;28;45341;-55
2021/12/29 06:49:56;;;;;;;;;5.00;5.00;;;;;12.41;75.64;100545.56;5071034;28;45413;-55
2021/12/29 06:52:21;;;;;;;;;8.50;6.00;;;;;12.39;75.82;100539.50;5064130;28;45333;-55
2021/12/29 06:54:47;;;;;;;;;6.00;6.00;;;;;12.39;75.92;100544.78;5063684;28;45330;-56
2021/12/29 06:57:13;;;;;;;;;5.25;5.25;;;;;12.38;76.04;100540.47;5072686;28;45325;-56
2021/12/29 06:59:39;;;;;;;;;4.50;4.00;;;;;12.38;76.14;100540.47;5067993;28;45351;-56
2021/12/29 07:02:04;;;;;;;;;5.50;5.00;;;;;12.37;76.10;100547.53;5073701;28;45419;-55
2021/12/29 07:04:30;;;;;;;;;8.25;5.75;;;;;12.38;76.05;100551.03;5083509;28;45947;-56
2021/12/29 07:06:56;;;;;;;;;3.50;3.00;;;;;12.37;76.14;100542.25;5083255;28;45337;-55
2021/12/29 07:09:23;;;;;;;;;7.00;7.00;;;;;12.37;76.38;100531.69;5083606;28;45252;-55
2021/12/29 07:11:49;;;;;;;;;59.50;48.25;;;;;12.41;76.35;100538.47;5083771;28;45237;-55
2021/12/29 07:14:14;;;;;;;;;8.25;8.00;;;;;12.43;76.24;100541.00;5083489;27;46017;-55
2021/12/29 07:16:44;;;;;;;;;9.50;8.00;;;;;12.39;76.26;100543.00;5083651;28;45362;-56
2021/12/29 07:19:10;;;;;;;;;5.75;5.25;;;;;12.38;76.46;100541.31;5083755;28;45361;-56
2021/12/29 07:21:35;;;;;;;;;5.00;5.00;;;;;12.41;76.31;100542.91;5083858;28;45420;-56
2021/12/29 07:24:01;;;;;;;;;7.00;5.25;;;;;12.44;76.51;100542.69;5083294;28;45413;-56
2021/12/29 07:26:27;;;;;;;;;6.50;6.00;;;;;12.44;76.44;100543.53;5083611;28;45286;-57
2021/12/29 07:28:52;;;;;;;;;5.50;5.50;;;;;12.44;76.39;100535.59;5083292;28;45318;-56
2021/12/29 07:31:19;;;;;;;;;9.25;8.00;;;;;12.44;76.43;100543.53;5083755;28;45469;-54
2021/12/29 07:33:45;;;;;;;;;9.50;7.00;;;;;12.47;76.80;100539.81;5083187;28;46279;-55
2021/12/29 07:36:11;;;;;;;;;4.75;4.75;;;;;12.47;76.66;100535.38;5083503;28;45224;-55
2021/12/29 07:38:41;;;;;;;;;5.75;4.75;;;;;12.47;76.66;100527.44;5083354;28;45372;-55
2021/12/29 07:41:08;;;;;;;;;5.00;4.00;;;;;12.49;76.70;100537.94;5083557;28;45389;-55
2021/12/29 07:43:35;;;;;;;;;8.75;5.00;;;;;12.50;76.63;100550.19;5083062;28;46215;-56
2021/12/29 07:46:01;;;;;;;;;6.00;5.50;;;;;12.52;76.57;100545.63;5083388;28;45333;-56
2021/12/29 07:48:30;;;;;;;;;8.25;7.00;;;;;12.50;76.81;100545.75;5082974;28;45330;-56
2021/12/29 07:50:57;;;;;;;;;6.00;4.50;;;;;12.52;76.93;100545.63;5063937;28;45458;-55
2021/12/29 07:53:22;;;;;;;;;10.50;6.75;;;;;12.52;76.81;100559.69;5062491;28;45259;-56
2021/12/29 07:55:48;;;;;;;;;9.00;7.50;;;;;12.55;76.67;100563.91;5070650;28;45185;-56
2021/12/29 07:58:15;;;;;;;;;11.75;7.25;;;;;12.57;76.75;100559.38;5063128;28;45242;-55
2021/12/29 08:00:42;;;;;;;;;6.50;5.25;;;;;12.60;76.94;100555.66;5066317;28;45605;-55
2021/12/29 08:03:11;;;;;;;;;5.25;4.25;;;;;12.61;76.72;100557.34;5081775;28;47339;-55
2021/12/29 08:05:37;;;;;;;;;7.50;4.50;;;;;12.60;77.00;100567.06;5082831;28;45243;-56
2021/12/29 08:08:05;;;;;;;;;5.50;4.00;;;;;12.63;77.01;100569.50;5082760;28;45254;-56
2021/12/29 08:10:31;;;;;;;;;10.00;9.25;;;;;12.65;77.03;100572.91;5083090;28;45401;-57
2021/12/29 08:12:57;;;;;;;;;11.50;9.25;;;;;12.67;77.10;100570.97;5082683;28;45401;-56
2021/12/29 08:15:22;;;;;;;;;8.50;8.50;;;;;12.68;76.99;100569.19;5082487;28;45437;-57
2021/12/29 08:17:48;;;;;;;;;6.00;6.00;;;;;12.69;77.41;100563.78;5082974;28;45291;-56
2021/12/29 08:20:13;;;;;;;;;8.00;7.00;;;;;12.71;77.33;100577.72;5082874;28;45339;-56
2021/12/29 08:22:39;;;;;;;;;5.75;4.25;;;;;12.74;77.14;100579.31;5082722;28;46102;-56
2021/12/29 08:25:06;;;;;;;;;5.00;5.00;;;;;12.75;77.20;100583.66;5082631;27;45354;-56
2021/12/29 08:27:33;;;;;;;;;6.75;6.00;;;;;12.76;77.31;100582.69;5082857;28;45414;-56
2021/12/29 08:29:59;;;;;;;;;12.50;9.50;;;;;12.78;77.41;100580.78;5081948;28;45189;-56
2021/12/29 08:32:26;;;;;;;;;5.75;5.75;;;;;12.81;77.58;100591.16;5073990;28;45451;-55
2021/12/29 08:34:52;;;;;;;;;7.25;6.50;;;;;12.81;77.61;100589.34;5075323;28;45247;-55
2021/12/29 08:37:17;;;;;;;;;9.75;8.50;;;;;12.84;77.61;100591.78;5082712;28;45430;-54
2021/12/29 08:39:43;;;;;;;;;7.00;5.00;;;;;12.86;77.49;100589.84;5082636;28;45319;-55
2021/12/29 08:42:09;;;;;;;;;10.00;8.75;;;;;12.88;77.52;100597.69;5082502;28;45416;-55
2021/12/29 08:44:34;;;;;;;;;9.00;5.75;;;;;12.90;77.72;100589.66;5082268;28;45448;-56
2021/12/29 08:47:00;;;;;;;;;10.75;8.00;;;;;12.93;77.73;100584.97;5082286;28;45244;-55
2021/12/29 08:49:25;;;;;;;;;8.75;6.75;;;;;12.95;77.84;100572.50;5075927;28;45238;-55
2021/12/29 08:51:51;;;;;;;;;10.75;8.75;;;;;12.97;77.69;100585.63;5062039;28;46246;-55
2021/12/29 08:54:16;;;;;;;;;9.25;9.00;;;;;12.99;77.80;100583.72;5061617;28;45163;-55
2021/12/29 08:56:42;;;;;;;;;8.25;6.00;;;;;12.99;77.76;100589.00;5071607;28;45200;-56
2021/12/29 08:59:07;;;;;;;;;9.00;7.75;;;;;13.02;78.12;100596.69;5065535;28;45227;-55
2021/12/29 09:01:33;;;;;;;;;5.25;5.25;;;;;13.04;78.18;100592.16;5068768;27;45228;-55
2021/12/29 09:03:58;;;;;;;;;5.75;5.25;;;;;13.06;77.93;100588.44;5082085;28;45334;-55
2021/12/29 09:06:24;;;;;;;;;9.00;7.00;;;;;13.10;77.99;100586.41;5082143;28;45285;-55
2021/12/29 09:08:49;;;;;;;;;6.50;5.00;;;;;13.12;78.18;100582.72;5082316;28;45313;-56
2021/12/29 09:11:16;;;;;;;;;9.00;5.50;;;;;13.19;78.05;100582.25;5081754;28;45370;-56
2021/12/29 09:13:41;;;;;;;;;7.00;6.75;;;;;13.22;78.13;100580.28;5081293;28;45333;-55
2021/12/29 09:16:08;;;;;;;;;7.75;5.25;;;;;13.27;78.38;100578.16;5081382;28;45415;-55
2021/12/29 09:18:36;;;;;;;;;5.25;4.00;;;;;13.33;78.45;100563.59;5081823;28;45313;-55
2021/12/29 09:21:11;;;;;;;;;4.00;4.00;;;;;13.36;78.33;100566.88;5081506;28;46172;-55
2021/12/29 09:23:37;;;;;;;;;4.75;4.75;;;;;13.37;78.29;100565.09;5081592;28;45227;-54
2021/12/29 09:26:04;;;;;;;;;9.00;8.00;;;;;13.42;78.66;100573.50;5081797;28;45311;-55
2021/12/29 09:28:30;;;;;;;;;6.00;4.25;;;;;13.47;78.76;100574.03;5081366;27;45354;-55
2021/12/29 09:30:56;;;;;;;;;7.00;5.00;;;;;13.53;78.44;100576.22;5081530;28;46750;-56
2021/12/29 09:33:21;;;;;;;;;5.25;5.25;;;;;13.58;78.34;100582.00;5081475;28;45310;-56
2021/12/29 09:35:51;;;;;;;;;4.00;4.00;;;;;13.62;78.42;100574.69;5080615;28;45559;-56
2021/12/29 09:38:18;;;;;;;;;5.75;4.00;;;;;13.63;78.38;100579.03;5081514;28;45180;-56
2021/12/29 09:40:46;;;;;;;;;3.50;3.50;;;;;13.64;78.58;100573.63;5080067;28;46248;-56
2021/12/29 09:43:13;;;;;;;;;1.25;0.75;;;;;13.69;78.45;100581.22;5081248;28;45540;-55
2021/12/29 09:45:40;;;;;;;;;4.75;4.00;;;;;13.73;78.46;100564.13;5080199;28;45405;-56
2021/12/29 09:48:06;;;;;;;;;10.00;6.50;;;;;13.78;78.55;100562.00;5081020;28;45317;-56
2021/12/29 09:50:32;;;;;;;;;5.00;5.00;;;;;13.83;78.83;100564.31;5065372;28;45387;-56
2021/12/29 09:52:58;;;;;;;;;6.75;5.00;;;;;13.87;78.73;100566.59;5060871;28;45251;-57
2021/12/29 09:55:25;;;;;;;;;6.25;4.25;;;;;13.89;78.69;100566.47;5065865;28;45275;-56
2021/12/29 09:57:54;;;;;;;;;6.50;4.75;;;;;13.95;78.59;100566.00;5064658;27;46287;-56
2021/12/29 10:00:25;;;;;;;;;6.00;5.00;;;;;13.99;78.61;100559.53;5064217;28;45425;-55
2021/12/29 10:02:51;;;;;;;;;5.75;4.75;;;;;14.01;78.71;100560.25;5077397;28;45272;-54
2021/12/29 10:05:17;;;;;;;;;7.25;6.00;;;;;14.02;78.79;100569.88;5080172;28;45327;-56
2021/12/29 10:07:43;;;;;;;;;5.50;5.50;;;;;14.07;79.09;100561.59;5081099;28;45464;-56
2021/12/29 10:10:20;;;;;;;;;6.50;4.25;;;;;14.11;79.00;100555.94;5069652;28;46623;-56
2021/12/29 10:12:46;;;;;;;;;10.25;5.25;;;;;14.14;78.91;100555.72;5079219;28;45469;-56
2021/12/29 10:15:13;;;;;;;;;6.50;6.00;;;;;14.19;78.69;100564.13;5079508;28;45276;-55
2021/12/29 10:17:38;;;;;;;;;6.25;5.50;;;;;14.23;78.89;100562.09;5080937;28;45560;-56
2021/12/29 10:20:14;;;;;;;;;5.50;5.50;;;;;14.27;78.83;100571.50;5081084;28;45327;-56
2021/12/29 10:22:41;;;;;;;;;5.00;4.00;;;;;14.29;78.86;100580.16;5081026;28;45286;-56
2021/12/29 10:25:11;;;;;;;;;5.00;4.50;;;;;14.30;78.93;100581.88;5080901;28;45475;-56
2021/12/29 10:27:39;;;;;;;;;5.50;5.00;;;;;14.30;79.08;100581.00;5072354;28;45486;-55
2021/12/29 10:30:18;;;;;;;;;6.75;5.00;;;;;14.30;79.07;100581.88;5074398;28;45453;-56
2021/12/29 10:32:44;;;;;;;;;1.25;1.25;;;;;14.30;79.47;100575.69;5080624;28;45473;-56
2021/12/29 10:35:21;;;;;;;;;5.50;2.50;;;;;14.29;79.63;100585.44;5080702;28;45361;-56
2021/12/29 10:37:47;;;;;;;;;3.00;2.25;;;;;14.32;79.55;100573.78;5080825;28;45157;-56
2021/12/29 10:40:24;;;;;;;;;1.50;1.25;;;;;14.35;80.02;100576.19;5080374;28;45322;-56
2021/12/29 10:42:59;;;;;;;;;1.25;1.00;;;;;14.41;80.07;100575.72;5081006;28;45385;-56
2021/12/29 10:45:34;;;;;;;;;1.00;1.00;;;;;14.46;80.40;100581.56;5080634;28;45251;-56
2021/12/29 10:48:01;;;;;;;;;1.00;1.00;;;;;14.49;80.29;100591.91;5080607;28;45222;-56
2021/12/29 10:50:27;;;;;;;;;0.00;0.00;;;;;14.51;80.13;100584.66;5065592;28;46243;-54
2021/12/29 10:52:56;;;;;;;;;0.00;0.00;;;;;14.54;80.25;100589.75;5060290;28;45330;-54
2021/12/29 10:55:31;;;;;;;;;0.00;0.00;;;;;14.59;80.34;100584.91;5064716;28;45245;-54
2021/12/29 10:58:14;;;;;;;;;0.00;0.00;;;;;14.63;80.53;100585.53;5067270;28;45186;-54
2021/12/29 11:00:42;;;;;;;;;2.00;1.00;;;;;14.66;80.36;100588.78;5072111;28;45427;-57
2021/12/29 11:03:08;;;;;;;;;0.25;0.00;;;;;14.69;80.21;100587.66;5082887;28;45228;-54
2021/12/29 11:05:39;;;;;;;;;4.00;0.00;;;;;14.72;80.39;100590.94;5084045;28;45333;-56
2021/12/29 11:08:07;;;;;;;;;0.50;0.00;;;;;14.74;80.61;100601.44;5084090;28;45519;-56
2021/12/29 11:10:32;;;;;;;;;0.75;0.00;;;;;14.76;80.89;100599.47;5083694;28;45557;-57
2021/12/29 11:12:58;;;;;;;;;0.50;0.00;;;;;14.78;80.72;100595.78;5083718;28;45250;-54
2021/12/29 11:15:26;;;;;;;;;2.00;0.00;;;;;14.81;81.01;100605.28;5083628;28;45232;-54
2021/12/29 11:17:53;;;;;;;;;0.00;0.00;;;;;14.85;81.07;100601.44;5083851;28;45401;-54
2021/12/29 11:20:22;;;;;;;;;0.75;0.75;;;;;14.88;81.23;100606.50;5083582;28;45424;-57
2021/12/29 11:22:48;;;;;;;;;0.00;0.00;;;;;14.93;81.26;100604.31;5083804;28;45434;-57
2021/12/29 11:25:25;;;;;;;;;0.00;0.00;;;;;15.02;81.15;100605.41;5083505;28;45483;-55
2021/12/29 11:27:50;;;;;;;;;0.00;0.00;;;;;15.07;80.98;100596.06;5083829;28;45376;-57
2021/12/29 11:30:16;;;;;;;;;0.00;0.00;;;;;15.10;81.32;100607.44;5082886;28;45948;-53